<?xml version='1.0' encoding='UTF-8'?>
<gpx xmlns="http://www.topografix.com/GPX/1/1" creator="www.balnam.be" version="1.1" xmlns:xsi="http://www.w3.org/2001/XMLSchema-instance" xsi:schemaLocation="http://www.topografix.com/GPX/1/1 http://www.topografix.com/GPX/1/1/gpx.xsd">
<trk>
<name>nvslf1</name>
<cmt>v</cmt>
<desc>Laforêt Chemin n°1 Chemin des Demoiselles / Rue Saint-Agathe</desc>
<link href="https://chemins.be/laforet/chemin/1"/><trkseg>
<trkpt lat="49.860611" lon="4.927345"><time>2026-05-03T01:36:59Z</time></trkpt>
<trkpt lat="49.858928" lon="4.927143"><time>2026-05-03T01:46:59Z</time></trkpt>
<trkpt lat="49.858147" lon="4.926828"><time>2026-05-03T01:56:59Z</time></trkpt>
</trkseg></trk>
<trk>
<name>nvslf1</name>
<cmt>d</cmt>
<desc>Laforêt Chemin n°1 Chemin des Demoiselles / Rue Saint-Agathe</desc>
<link href="https://chemins.be/laforet/chemin/1"/><trkseg>
<trkpt lat="49.858147" lon="4.926828"><time>2026-05-03T01:56:59Z</time></trkpt>
<trkpt lat="49.857681" lon="4.926614"><time>2026-05-03T02:06:59Z</time></trkpt>
<trkpt lat="49.857368" lon="4.926207"><time>2026-05-03T02:16:59Z</time></trkpt>
<trkpt lat="49.857331" lon="4.926471"><time>2026-05-03T02:26:59Z</time></trkpt>
<trkpt lat="49.857343" lon="4.927708"><time>2026-05-03T02:36:59Z</time></trkpt>
<trkpt lat="49.857231" lon="4.928514"><time>2026-05-03T02:46:59Z</time></trkpt>
<trkpt lat="49.856834" lon="4.928843"><time>2026-05-03T02:56:59Z</time></trkpt>
</trkseg></trk>
<trk>
<name>nvslf1</name>
<cmt>v</cmt>
<desc>Laforêt Chemin n°1 Chemin des Demoiselles / Rue Saint-Agathe</desc>
<link href="https://chemins.be/laforet/chemin/1"/><trkseg>
<trkpt lat="49.856834" lon="4.928843"><time>2026-05-03T02:56:59Z</time></trkpt>
<trkpt lat="49.855244" lon="4.928588"><time>2026-05-03T03:06:59Z</time></trkpt>
</trkseg></trk>
<trk>
<name>nvslf1</name>
<cmt>r</cmt>
<desc>Laforêt Chemin n°1 Chemin des Demoiselles / Rue Saint-Agathe</desc>
<link href="https://chemins.be/laforet/chemin/1"/><trkseg>
<trkpt lat="49.855244" lon="4.928588"><time>2026-05-03T03:06:59Z</time></trkpt>
<trkpt lat="49.854868" lon="4.928236"><time>2026-05-03T03:16:59Z</time></trkpt>
<trkpt lat="49.852848" lon="4.927545"><time>2026-05-03T03:26:59Z</time></trkpt>
<trkpt lat="49.852202" lon="4.927301"><time>2026-05-03T03:36:59Z</time></trkpt>
</trkseg></trk>
<trk>
<name>nvslf1</name>
<cmt>v</cmt>
<desc>Laforêt Chemin n°1 Chemin des Demoiselles / Rue Saint-Agathe</desc>
<link href="https://chemins.be/laforet/chemin/1"/><trkseg>
<trkpt lat="49.852202" lon="4.927301"><time>2026-05-03T03:36:59Z</time></trkpt>
<trkpt lat="49.851727" lon="4.927122"><time>2026-05-03T03:46:59Z</time></trkpt>
<trkpt lat="49.848584" lon="4.926160"><time>2026-05-03T03:56:59Z</time></trkpt>
<trkpt lat="49.847739" lon="4.926081"><time>2026-05-03T04:06:59Z</time></trkpt>
<trkpt lat="49.845159" lon="4.926107"><time>2026-05-03T04:16:59Z</time></trkpt>
<trkpt lat="49.841822" lon="4.924483"><time>2026-05-03T04:26:59Z</time></trkpt>
<trkpt lat="49.841145" lon="4.925017"><time>2026-05-03T04:36:59Z</time></trkpt>
<trkpt lat="49.838752" lon="4.925406"><time>2026-05-03T04:46:59Z</time></trkpt>
<trkpt lat="49.835222" lon="4.920945"><time>2026-05-03T04:56:59Z</time></trkpt>
<trkpt lat="49.834423" lon="4.920686"><time>2026-05-03T05:06:59Z</time></trkpt>
<trkpt lat="49.833692" lon="4.921345"><time>2026-05-03T05:16:59Z</time></trkpt>
<trkpt lat="49.833263" lon="4.922521"><time>2026-05-03T05:26:59Z</time></trkpt>
<trkpt lat="49.831217" lon="4.923707"><time>2026-05-03T05:36:59Z</time></trkpt>
<trkpt lat="49.829511" lon="4.926800"><time>2026-05-03T05:46:59Z</time></trkpt>
<trkpt lat="49.828769" lon="4.927862"><time>2026-05-03T05:56:59Z</time></trkpt>
<trkpt lat="49.827523" lon="4.928945"><time>2026-05-03T06:06:59Z</time></trkpt>
<trkpt lat="49.826731" lon="4.929089"><time>2026-05-03T06:16:59Z</time></trkpt>
<trkpt lat="49.826041" lon="4.928622"><time>2026-05-03T06:26:59Z</time></trkpt>
<trkpt lat="49.825492" lon="4.928824"><time>2026-05-03T06:36:59Z</time></trkpt>
<trkpt lat="49.824901" lon="4.929999"><time>2026-05-03T06:46:59Z</time></trkpt>
</trkseg>
</trk>
</gpx>